Time;durP1;ratioP1;P1;durP2;ratioP2;P2;SDS_P1;SDS_P2;PMS_P1;PMS_P2;Temp;Humidity;BMP_temperature;BMP_pressure;BME280_temperature;BME280_humidity;BME280_pressure;Samples;Min_cycle;Max_cycle;Signal;HPM_P1;HPM_P2
2024/03/23 00:00:22;;;;;;;7.18;2.08;;;18.10;49.10;;;;;;4994772;28;20053;-77
2024/03/23 00:02:52;;;;;;;2.50;1.60;;;18.10;49.00;;;;;;4996061;28;20049;-76
2024/03/23 00:05:21;;;;;;;5.65;2.30;;;18.10;48.90;;;;;;5015835;28;20053;-77
2024/03/23 00:07:53;;;;;;;3.17;1.73;;;18.10;48.90;;;;;;5011251;28;20056;-77
2024/03/23 00:10:21;;;;;;;4.13;1.77;;;18.10;48.90;;;;;;4999226;28;20045;-76
2024/03/23 00:12:48;;;;;;;4.88;2.47;;;18.10;48.90;;;;;;5010469;28;20060;-76
2024/03/23 00:15:14;;;;;;;3.15;1.85;;;18.10;48.90;;;;;;4998309;28;20057;-76
2024/03/23 00:17:41;;;;;;;17.40;4.88;;;18.00;48.80;;;;;;5013409;28;20057;-77
2024/03/23 00:20:08;;;;;;;14.95;5.68;;;18.00;48.80;;;;;;4990211;28;20056;-78
2024/03/23 00:22:35;;;;;;;3.80;1.67;;;17.90;48.80;;;;;;5010927;28;20107;-77
2024/03/23 00:25:06;;;;;;;15.00;4.95;;;17.90;48.80;;;;;;4995773;28;20382;-77
2024/03/23 00:27:35;;;;;;;28.58;9.15;;;17.80;48.90;;;;;;4992526;28;20057;-76
2024/03/23 00:30:04;;;;;;;3.88;1.75;;;17.70;48.90;;;;;;5004752;28;20589;-76
2024/03/23 00:32:33;;;;;;;30.80;9.40;;;17.60;49.00;;;;;;5011536;28;20067;-77
2024/03/23 00:35:04;;;;;;;13.15;4.68;;;17.50;49.10;;;;;;5015536;28;20065;-76
2024/03/23 00:37:33;;;;;;;3.85;1.85;;;17.40;49.80;;;;;;5016167;28;20593;-77
2024/03/23 00:40:04;;;;;;;4.38;1.92;;;17.30;49.20;;;;;;5007031;28;20053;-75
2024/03/23 00:42:33;;;;;;;3.58;2.30;;;17.30;49.30;;;;;;5012865;28;21524;-77
2024/03/23 00:45:03;;;;;;;6.72;2.42;;;17.30;49.30;;;;;;5014096;28;20493;-77
2024/03/23 00:47:32;;;;;;;6.47;2.42;;;17.30;49.30;;;;;;5010768;28;20072;-76
2024/03/23 00:50:02;;;;;;;2.88;2.15;;;17.20;49.30;;;;;;4990318;28;20405;-74
2024/03/23 00:52:29;;;;;;;5.55;1.60;;;17.20;49.60;;;;;;5016037;28;20049;-76
2024/03/23 00:54:56;;;;;;;2.28;1.58;;;17.20;49.50;;;;;;5011656;28;20062;-77
2024/03/23 00:57:23;;;;;;;8.35;2.83;;;17.20;49.50;;;;;;5014261;28;20705;-77
2024/03/23 00:59:50;;;;;;;10.30;3.30;;;17.20;49.50;;;;;;4998122;28;20065;-77
2024/03/23 01:02:16;;;;;;;8.38;2.92;;;17.20;49.50;;;;;;4998655;28;20053;-77
2024/03/23 01:04:44;;;;;;;2.78;1.77;;;17.20;49.50;;;;;;4995860;28;20045;-77
2024/03/23 01:07:10;;;;;;;2.40;1.63;;;17.20;49.50;;;;;;5018444;28;20052;-77
2024/03/23 01:09:39;;;;;;;2.13;1.50;;;17.20;49.50;;;;;;5014455;28;20083;-76
2024/03/23 01:12:05;;;;;;;2.58;1.40;;;17.20;49.40;;;;;;5007823;28;20065;-77
2024/03/23 01:14:33;;;;;;;3.35;2.20;;;17.20;49.50;;;;;;5017448;28;20080;-77
2024/03/23 01:16:59;;;;;;;2.67;1.58;;;17.20;49.50;;;;;;5034443;28;20127;-77
2024/03/23 01:19:26;;;;;;;1.73;1.35;;;17.10;49.40;;;;;;5024953;28;20149;-76
2024/03/23 01:21:53;;;;;;;4.57;2.22;;;17.00;49.50;;;;;;5011886;28;20071;-77
2024/03/23 01:24:20;;;;;;;5.88;1.67;;;17.00;49.50;;;;;;4992602;28;20053;-76
2024/03/23 01:26:48;;;;;;;2.45;1.65;;;16.90;49.50;;;;;;5011374;28;20072;-77
2024/03/23 01:29:15;;;;;;;6.93;1.80;;;16.80;49.50;;;;;;4994505;28;20443;-76
2024/03/23 01:31:42;;;;;;;5.53;1.75;;;16.80;49.60;;;;;;5032332;28;20123;-76
2024/03/23 01:34:09;;;;;;;2.78;1.80;;;16.70;49.70;;;;;;5000309;28;20052;-76
2024/03/23 01:36:35;;;;;;;2.58;1.73;;;16.60;49.70;;;;;;5013734;28;20053;-76
2024/03/23 01:39:02;;;;;;;2.97;1.67;;;16.60;49.70;;;;;;5007767;28;20053;-75
2024/03/23 01:41:29;;;;;;;5.40;1.73;;;16.50;49.70;;;;;;5012828;28;20053;-76
2024/03/23 01:43:58;;;;;;;5.18;1.85;;;16.50;49.80;;;;;;4988014;28;20531;-75
2024/03/23 01:46:24;;;;;;;2.50;1.50;;;16.40;49.80;;;;;;4983445;28;20058;-79
2024/03/23 01:48:51;;;;;;;5.80;1.88;;;16.40;49.90;;;;;;5012417;28;20053;-76
2024/03/23 01:51:18;;;;;;;1.60;1.48;;;16.30;49.90;;;;;;5015262;28;20054;-77
2024/03/23 01:53:45;;;;;;;6.97;1.83;;;16.30;50.00;;;;;;5011048;28;20049;-76
2024/03/23 01:56:13;;;;;;;3.22;1.65;;;16.20;50.00;;;;;;5007002;28;20064;-77
2024/03/23 01:58:40;;;;;;;2.15;1.55;;;16.20;50.00;;;;;;5021148;28;20062;-77
2024/03/23 02:01:08;;;;;;;2.70;1.75;;;16.10;50.00;;;;;;4998013;28;20053;-77
2024/03/23 02:03:35;;;;;;;3.15;1.90;;;16.10;50.10;;;;;;5008890;28;20043;-77
2024/03/23 02:06:02;;;;;;;2.55;1.75;;;16.00;50.10;;;;;;5007543;28;20547;-77
2024/03/23 02:08:30;;;;;;;2.67;1.33;;;16.00;50.20;;;;;;5010217;28;20045;-77
2024/03/23 02:10:58;;;;;;;3.08;1.88;;;15.90;50.20;;;;;;5007088;28;20511;-76
2024/03/23 02:13:26;;;;;;;3.15;1.85;;;15.90;50.30;;;;;;5013783;28;20084;-77
2024/03/23 02:15:53;;;;;;;3.05;1.73;;;15.90;50.30;;;;;;5009509;28;20061;-75
2024/03/23 02:18:22;;;;;;;5.40;2.38;;;15.80;50.30;;;;;;4992739;28;20037;-76
2024/03/23 02:20:48;;;;;;;3.28;1.83;;;15.80;50.40;;;;;;5012252;28;20524;-76
2024/03/23 02:23:17;;;;;;;3.83;2.00;;;15.70;50.50;;;;;;5011943;28;20054;-76
2024/03/23 02:25:44;;;;;;;5.47;2.35;;;15.70;50.40;;;;;;5003889;28;20061;-77
2024/03/23 02:28:11;;;;;;;9.93;1.98;;;15.60;50.40;;;;;;5007275;28;20057;-77
2024/03/23 02:30:38;;;;;;;3.63;1.50;;;15.60;50.50;;;;;;5013867;28;20046;-76
2024/03/23 02:33:05;;;;;;;2.20;1.77;;;15.60;50.60;;;;;;4997116;28;20054;-75
2024/03/23 02:35:31;;;;;;;6.38;2.05;;;15.60;50.70;;;;;;5016773;28;20454;-77
2024/03/23 02:38:00;;;;;;;2.00;1.60;;;15.60;50.70;;;;;;5009695;28;20056;-76
2024/03/23 02:40:28;;;;;;;2.05;1.70;;;15.60;51.30;;;;;;5014518;28;20125;-77
2024/03/23 02:42:55;;;;;;;1.73;1.60;;;15.50;50.70;;;;;;5014578;28;20131;-76
2024/03/23 02:45:22;;;;;;;5.75;1.75;;;15.50;50.80;;;;;;5035168;28;20054;-77
2024/03/23 02:47:51;;;;;;;2.80;1.90;;;15.50;50.80;;;;;;5014987;28;20728;-76
2024/03/23 02:50:18;;;;;;;2.35;1.73;;;15.50;50.80;;;;;;5006228;28;21507;-76
2024/03/23 02:52:45;;;;;;;3.05;1.67;;;15.50;50.90;;;;;;5015737;28;20053;-77
2024/03/23 02:55:12;;;;;;;1.30;1.20;;;15.50;50.80;;;;;;4997599;28;20060;-76
2024/03/23 02:57:40;;;;;;;5.00;2.20;;;15.50;50.80;;;;;;5014990;28;20599;-78
2024/03/23 03:00:08;;;;;;;7.63;1.77;;;15.50;51.00;;;;;;5012888;28;20077;-77
2024/03/23 03:02:37;;;;;;;3.10;1.98;;;15.40;50.90;;;;;;5012894;28;20479;-77
2024/03/23 03:05:04;;;;;;;5.03;2.05;;;15.40;50.80;;;;;;5002184;28;20057;-76
2024/03/23 03:07:32;;;;;;;3.38;1.45;;;15.40;50.80;;;;;;4998138;28;20136;-78
2024/03/23 03:09:58;;;;;;;2.83;1.92;;;15.40;50.90;;;;;;5009920;28;20049;-75
2024/03/23 03:12:25;;;;;;;2.10;1.50;;;15.40;50.90;;;;;;5014887;28;20111;-76
2024/03/23 03:14:53;;;;;;;5.50;2.10;;;15.40;50.90;;;;;;5007570;28;20086;-76
2024/03/23 03:17:20;;;;;;;2.72;1.67;;;15.40;51.00;;;;;;4997318;28;20041;-77
2024/03/23 03:19:47;;;;;;;1.70;1.52;;;15.30;51.00;;;;;;4993301;28;20061;-77
2024/03/23 03:22:14;;;;;;;4.00;2.20;;;15.30;51.00;;;;;;5008736;28;20464;-77
2024/03/23 03:24:41;;;;;;;3.60;1.70;;;15.30;51.00;;;;;;5012381;28;20049;-76
2024/03/23 03:27:08;;;;;;;12.77;2.15;;;15.30;51.00;;;;;;5010349;28;20487;-77
2024/03/23 03:29:35;;;;;;;2.63;1.63;;;15.30;51.00;;;;;;5016657;28;20140;-76
2024/03/23 03:32:05;;;;;;;1.35;1.25;;;15.30;50.90;;;;;;4986550;28;20412;-79
2024/03/23 03:34:31;;;;;;;3.53;2.28;;;15.30;51.00;;;;;;5008056;28;20050;-76
2024/03/23 03:36:59;;;;;;;2.42;1.85;;;15.20;51.00;;;;;;5013576;28;20068;-77
2024/03/23 03:39:26;;;;;;;2.00;1.52;;;15.20;51.00;;;;;;5018638;28;20061;-78
2024/03/23 03:41:53;;;;;;;2.53;1.58;;;15.20;51.10;;;;;;4992270;28;20950;-77
2024/03/23 03:44:20;;;;;;;3.38;2.13;;;15.20;51.10;;;;;;5012199;28;20083;-77
2024/03/23 03:46:47;;;;;;;2.17;1.50;;;15.20;51.20;;;;;;5013442;28;20162;-77
2024/03/23 03:49:15;;;;;;;1.90;1.60;;;15.10;51.10;;;;;;4999721;28;20054;-77
2024/03/23 03:51:42;;;;;;;3.50;2.00;;;15.10;51.10;;;;;;4997324;28;20836;-77
2024/03/23 03:54:08;;;;;;;3.10;1.90;;;15.10;51.20;;;;;;5007211;28;20050;-77
2024/03/23 03:56:36;;;;;;;2.17;1.80;;;15.10;51.80;;;;;;4999928;28;20155;-77
2024/03/23 03:59:02;;;;;;;4.35;2.13;;;15.00;51.20;;;;;;5014022;28;20053;-78
2024/03/23 04:01:29;;;;;;;2.53;1.92;;;15.00;51.90;;;;;;5014449;28;20777;-77
2024/03/23 04:03:55;;;;;;;4.60;1.98;;;15.00;51.30;;;;;;5019615;28;20164;-76
2024/03/23 04:06:24;;;;;;;6.15;1.30;;;15.00;51.30;;;;;;5004056;28;22492;-77
2024/03/23 04:08:50;;;;;;;2.08;1.85;;;14.90;51.30;;;;;;5026324;28;20041;-76
2024/03/23 04:11:17;;;;;;;4.50;2.20;;;14.90;51.30;;;;;;5028152;28;20113;-77
2024/03/23 04:13:44;;;;;;;3.08;1.85;;;14.90;51.30;;;;;;5002653;28;20057;-77
2024/03/23 04:16:11;;;;;;;3.50;2.00;;;14.90;51.30;;;;;;5010520;28;20495;-77
2024/03/23 04:18:37;;;;;;;2.50;2.03;;;14.80;51.30;;;;;;5014419;28;20133;-76
2024/03/23 04:21:05;;;;;;;3.13;1.98;;;14.80;51.30;;;;;;4993711;28;20067;-77
2024/03/23 04:23:32;;;;;;;2.95;1.73;;;14.70;51.30;;;;;;5013122;28;20057;-77
2024/03/23 04:26:05;;;;;;;2.80;1.70;;;14.70;51.40;;;;;;5012040;28;20499;-76
2024/03/23 04:28:31;;;;;;;5.05;2.45;;;14.60;51.40;;;;;;4996163;28;20049;-77
2024/03/23 04:30:58;;;;;;;3.35;1.77;;;14.60;51.40;;;;;;5006822;28;20045;-77
2024/03/23 04:33:24;;;;;;;3.85;2.00;;;14.50;51.50;;;;;;5015258;28;20220;-76
2024/03/23 04:35:52;;;;;;;2.78;1.48;;;14.50;51.50;;;;;;4998237;28;20049;-76
2024/03/23 04:38:19;;;;;;;3.25;2.05;;;14.40;51.50;;;;;;4992962;28;20571;-77
2024/03/23 04:40:55;;;;;;;5.95;1.50;;;14.40;51.70;;;;;;4995951;28;20725;-76
2024/03/23 04:43:22;;;;;;;3.90;2.15;;;14.30;51.70;;;;;;5013769;28;20049;-76
2024/03/23 04:45:50;;;;;;;5.75;1.98;;;14.30;51.80;;;;;;5015037;28;20606;-77
2024/03/23 04:48:17;;;;;;;2.53;1.67;;;14.30;51.80;;;;;;5007647;28;20061;-78
2024/03/23 04:50:43;;;;;;;2.75;1.98;;;14.20;52.00;;;;;;4998395;28;20060;-77
2024/03/23 04:53:11;;;;;;;2.75;1.70;;;14.30;52.00;;;;;;5015114;28;20144;-77
2024/03/23 04:55:38;;;;;;;2.60;1.33;;;14.20;52.10;;;;;;5010294;28;20053;-77
2024/03/23 04:58:06;;;;;;;2.80;1.73;;;14.20;52.10;;;;;;5007362;28;20049;-75
2024/03/23 05:00:33;;;;;;;5.57;2.35;;;14.20;52.20;;;;;;5013760;28;20103;-76
2024/03/23 05:03:01;;;;;;;2.47;1.58;;;14.20;52.20;;;;;;5014344;28;20049;-77
2024/03/23 05:05:27;;;;;;;2.00;1.60;;;14.20;52.20;;;;;;5015734;28;20057;-77
2024/03/23 05:07:54;;;;;;;2.03;1.60;;;14.30;52.30;;;;;;5011790;28;20060;-75
2024/03/23 05:10:21;;;;;;;1.45;1.33;;;14.30;52.30;;;;;;5011153;28;20136;-76
2024/03/23 05:12:48;;;;;;;4.53;2.20;;;14.40;52.40;;;;;;5014756;28;20060;-76
2024/03/23 05:15:16;;;;;;;2.47;1.35;;;14.40;52.30;;;;;;5021346;28;20065;-78
2024/03/23 05:17:43;;;;;;;3.13;1.67;;;14.50;52.90;;;;;;5012422;28;20057;-78
2024/03/23 05:20:10;;;;;;;2.35;1.30;;;14.50;52.10;;;;;;4990978;28;20049;-77
2024/03/23 05:22:39;;;;;;;2.17;1.42;;;14.60;52.20;;;;;;5012784;28;20049;-77
2024/03/23 05:25:07;;;;;;;3.42;1.40;;;14.60;52.10;;;;;;5010109;28;20631;-77
2024/03/23 05:27:34;;;;;;;1.85;1.20;;;14.60;52.00;;;;;;5014260;28;20061;-77
2024/03/23 05:30:01;;;;;;;2.70;1.92;;;14.70;52.00;;;;;;4984579;28;20049;-78
2024/03/23 05:32:30;;;;;;;2.67;1.63;;;14.70;52.00;;;;;;4997006;28;20051;-77
2024/03/23 05:34:56;;;;;;;2.20;1.52;;;14.70;51.90;;;;;;5012617;28;20089;-78
2024/03/23 05:37:24;;;;;;;3.17;1.80;;;14.70;51.90;;;;;;4997718;28;20132;-77
2024/03/23 05:39:50;;;;;;;2.55;1.80;;;14.70;51.80;;;;;;4994436;28;20587;-79
2024/03/23 05:42:17;;;;;;;2.08;1.30;;;14.70;51.90;;;;;;4989849;28;20042;-77
2024/03/23 05:44:45;;;;;;;2.60;1.55;;;14.70;51.90;;;;;;5011712;28;20063;-77
2024/03/23 05:47:14;;;;;;;1.90;1.70;;;14.70;51.90;;;;;;5016464;28;20095;-77
2024/03/23 05:49:42;;;;;;;2.88;1.25;;;14.70;51.90;;;;;;4997509;28;20045;-78
2024/03/23 05:52:09;;;;;;;3.88;1.98;;;14.70;51.90;;;;;;4988437;28;20136;-77
2024/03/23 05:54:36;;;;;;;2.15;1.48;;;14.70;51.90;;;;;;5008562;28;20112;-76
2024/03/23 05:57:03;;;;;;;4.38;1.45;;;14.70;51.90;;;;;;5014325;28;20060;-77
2024/03/23 05:59:29;;;;;;;2.78;1.65;;;14.70;51.90;;;;;;5009575;28;20068;-76
2024/03/23 06:01:57;;;;;;;4.13;1.52;;;14.70;51.90;;;;;;5008283;28;20125;-76
2024/03/23 06:04:23;;;;;;;1.90;1.25;;;14.70;52.00;;;;;;5009309;28;21065;-77
2024/03/23 06:06:52;;;;;;;4.80;2.00;;;14.70;51.90;;;;;;5016390;28;20054;-77
2024/03/23 06:09:19;;;;;;;2.80;1.30;;;14.80;52.60;;;;;;5018603;28;20472;-75
2024/03/23 06:11:46;;;;;;;15.65;1.48;;;14.90;52.00;;;;;;5004620;28;20049;-77
2024/03/23 06:14:13;;;;;;;3.60;1.73;;;14.90;51.90;;;;;;4992865;28;20601;-76
2024/03/23 06:16:40;;;;;;;3.42;1.38;;;15.00;51.90;;;;;;5012826;28;20046;-75
2024/03/23 06:19:06;;;;;;;2.22;1.60;;;15.00;51.90;;;;;;5015295;28;20053;-76
2024/03/23 06:21:34;;;;;;;1.30;1.20;;;15.10;51.90;;;;;;4996393;28;20164;-75
2024/03/23 06:24:03;;;;;;;2.28;1.50;;;15.20;51.90;;;;;;5024445;28;20041;-77
2024/03/23 06:26:30;;;;;;;2.05;1.40;;;15.20;51.80;;;;;;5015290;28;20057;-76
2024/03/23 06:28:56;;;;;;;1.85;1.25;;;15.30;51.90;;;;;;5015111;28;20052;-76
2024/03/23 06:31:24;;;;;;;4.18;1.48;;;15.40;51.80;;;;;;5012493;28;20281;-76
2024/03/23 06:33:50;;;;;;;2.22;1.30;;;15.40;51.70;;;;;;5017124;28;20049;-77
2024/03/23 06:36:20;;;;;;;2.47;1.20;;;15.50;51.70;;;;;;5009202;28;20057;-77
2024/03/23 06:38:47;;;;;;;2.28;1.10;;;15.60;51.60;;;;;;5000517;28;20057;-75
2024/03/23 06:41:16;;;;;;;4.65;1.25;;;15.70;51.50;;;;;;5014559;28;20057;-75
2024/03/23 06:43:43;;;;;;;1.50;1.00;;;15.80;51.50;;;;;;5014039;28;20049;-75
2024/03/23 06:46:10;;;;;;;2.88;1.48;;;15.90;51.40;;;;;;4989700;28;20545;-76
2024/03/23 06:48:37;;;;;;;1.95;1.30;;;16.00;51.40;;;;;;4996478;28;20424;-77
2024/03/23 06:51:06;;;;;;;1.55;1.15;;;16.00;51.30;;;;;;5016396;28;20064;-75
2024/03/23 06:53:32;;;;;;;2.10;1.17;;;16.10;51.20;;;;;;5012426;28;20068;-76
2024/03/23 06:56:01;;;;;;;1.83;1.58;;;16.20;51.10;;;;;;5008115;28;20069;-75
2024/03/23 06:58:28;;;;;;;2.67;1.23;;;16.20;51.00;;;;;;4998291;28;20053;-75
2024/03/23 07:00:55;;;;;;;2.70;1.48;;;16.30;51.10;;;;;;5020677;28;20069;-75
2024/03/23 07:03:22;;;;;;;2.13;1.52;;;16.30;50.90;;;;;;5011874;28;20053;-77
2024/03/23 07:05:50;;;;;;;1.58;1.30;;;16.30;50.90;;;;;;5010432;28;20140;-78
2024/03/23 07:08:21;;;;;;;18.13;2.03;;;16.40;51.00;;;;;;5001162;28;20042;-77
2024/03/23 07:10:48;;;;;;;4.50;1.27;;;16.50;51.00;;;;;;4995468;28;20068;-77
2024/03/23 07:13:14;;;;;;;1.85;1.23;;;16.60;50.90;;;;;;4991343;28;21381;-71
2024/03/23 07:15:43;;;;;;;3.97;2.13;;;16.60;50.80;;;;;;5007369;28;20056;-67
2024/03/23 07:18:09;;;;;;;2.45;1.40;;;16.70;50.70;;;;;;4998807;28;20054;-70
2024/03/23 07:20:37;;;;;;;2.65;1.60;;;16.70;50.70;;;;;;5010755;28;20057;-69
2024/03/23 07:23:03;;;;;;;1.70;1.30;;;16.80;50.70;;;;;;5010335;28;20057;-70
2024/03/23 07:25:31;;;;;;;4.40;1.60;;;16.80;50.70;;;;;;5005062;28;20061;-71
2024/03/23 07:27:58;;;;;;;1.30;1.20;;;16.90;50.60;;;;;;5000079;28;20057;-69
2024/03/23 07:30:26;;;;;;;1.70;1.40;;;16.90;50.50;;;;;;5007153;28;20064;-72
2024/03/23 07:32:54;;;;;;;2.13;1.30;;;17.00;50.50;;;;;;4993450;28;20057;-73
2024/03/23 07:35:21;;;;;;;3.08;1.58;;;17.10;50.40;;;;;;4991430;28;20107;-70
2024/03/23 07:37:47;;;;;;;3.92;1.45;;;17.10;50.60;;;;;;5006807;28;20436;-70
2024/03/23 07:40:15;;;;;;;2.75;1.20;;;17.20;50.20;;;;;;5001251;28;20396;-68
2024/03/23 07:42:41;;;;;;;1.35;1.25;;;17.30;50.10;;;;;;5012470;28;20049;-70
2024/03/23 07:45:09;;;;;;;1.80;1.20;;;17.40;50.20;;;;;;5010658;28;20057;-70
2024/03/23 07:47:35;;;;;;;2.40;1.35;;;17.60;50.10;;;;;;4994483;28;20057;-74
2024/03/23 07:50:04;;;;;;;1.85;1.02;;;17.70;50.20;;;;;;5002705;28;20102;-66
2024/03/23 07:52:31;;;;;;;2.15;1.35;;;17.90;49.90;;;;;;5010542;28;20171;-67
2024/03/23 07:54:58;;;;;;;3.50;1.25;;;18.10;49.70;;;;;;5012248;28;20057;-69
2024/03/23 07:57:24;;;;;;;1.30;1.02;;;18.40;49.70;;;;;;5009723;28;20634;-68
2024/03/23 07:59:52;;;;;;;1.10;1.00;;;19.40;50.70;;;;;;5002268;28;20049;-67
2024/03/23 08:02:18;;;;;;;2.83;1.30;;;21.00;50.50;;;;;;5007557;28;20127;-68
2024/03/23 08:04:45;;;;;;;8.70;1.55;;;22.80;49.20;;;;;;5013407;28;20484;-68
2024/03/23 08:07:13;;;;;;;4.25;1.30;;;24.40;47.00;;;;;;5010662;28;20049;-69
2024/03/23 08:09:40;;;;;;;1.75;1.10;;;25.80;45.50;;;;;;5009588;28;20053;-69
2024/03/23 08:12:07;;;;;;;1.45;1.10;;;27.00;44.60;;;;;;5008272;28;20053;-65
2024/03/23 08:14:38;;;;;;;7.40;1.00;;;28.20;43.60;;;;;;4998757;28;21055;-68
2024/03/23 08:17:05;;;;;;;1.48;1.00;;;29.10;42.10;;;;;;5009924;28;20422;-66
2024/03/23 08:19:32;;;;;;;1.25;0.93;;;29.80;41.70;;;;;;5012618;28;20091;-67
2024/03/23 08:21:59;;;;;;;1.80;0.98;;;30.20;39.70;;;;;;5006441;28;20056;-67
2024/03/23 08:24:30;;;;;;;1.45;1.05;;;30.50;39.50;;;;;;5009199;28;20136;-63
2024/03/23 08:26:56;;;;;;;1.67;0.85;;;30.90;39.30;;;;;;5006999;28;20124;-64
2024/03/23 08:29:23;;;;;;;1.05;0.88;;;31.30;38.80;;;;;;4995400;28;20099;-64
2024/03/23 08:31:49;;;;;;;1.25;0.90;;;31.50;38.10;;;;;;5012275;28;20611;-65
2024/03/23 08:34:17;;;;;;;2.05;1.15;;;31.70;37.30;;;;;;4987816;28;20169;-67
2024/03/23 08:36:43;;;;;;;1.50;0.93;;;32.00;37.70;;;;;;5008784;28;20508;-66
2024/03/23 08:39:10;;;;;;;3.70;1.30;;;32.70;37.30;;;;;;5010871;28;20651;-66
2024/03/23 08:41:38;;;;;;;0.77;0.75;;;33.20;36.90;;;;;;4993938;28;20459;-64
2024/03/23 08:44:05;;;;;;;1.10;0.82;;;33.40;35.40;;;;;;5006703;28;20397;-65
2024/03/23 08:46:32;;;;;;;1.15;1.00;;;33.60;35.60;;;;;;5013420;28;20172;-65
2024/03/23 08:48:59;;;;;;;1.00;0.95;;;33.90;35.20;;;;;;5012104;28;20057;-64
2024/03/23 08:51:25;;;;;;;1.48;1.10;;;33.90;35.00;;;;;;5026306;28;20508;-65
2024/03/23 08:53:52;;;;;;;1.30;1.20;;;33.70;34.90;;;;;;5011495;28;20103;-65
2024/03/23 08:56:19;;;;;;;1.13;0.80;;;33.40;33.30;;;;;;5005685;28;20052;-65
2024/03/23 08:58:48;;;;;;;1.40;1.00;;;33.40;34.00;;;;;;5011071;28;20508;-65
2024/03/23 09:01:14;;;;;;;1.23;1.00;;;33.80;34.00;;;;;;5010198;28;20068;-65
2024/03/23 09:03:42;;;;;;;1.58;1.15;;;33.30;32.70;;;;;;5012682;28;20049;-65
2024/03/23 09:06:08;;;;;;;4.25;1.00;;;33.10;33.80;;;;;;5003482;28;20049;-66
2024/03/23 09:08:36;;;;;;;1.60;1.10;;;33.10;33.40;;;;;;5008588;28;20060;-66
2024/03/23 09:11:05;;;;;;;1.35;1.25;;;32.60;33.60;;;;;;5012153;28;20115;-67
2024/03/23 09:13:33;;;;;;;4.63;1.77;;;31.60;32.80;;;;;;4997988;28;20058;-65
2024/03/23 09:16:01;;;;;;;1.90;1.30;;;30.80;33.50;;;;;;5003478;28;20072;-65
2024/03/23 09:18:33;;;;;;;7.65;1.65;;;30.30;34.20;;;;;;5029131;28;20057;-67
2024/03/23 09:20:59;;;;;;;2.45;1.48;;;30.10;34.70;;;;;;5009977;28;20192;-69
2024/03/23 09:23:27;;;;;;;3.53;1.73;;;29.90;34.80;;;;;;5011657;28;20084;-66
2024/03/23 09:25:53;;;;;;;4.75;2.30;;;29.60;34.80;;;;;;4995679;28;20052;-71
2024/03/23 09:28:21;;;;;;;3.25;2.10;;;29.40;35.10;;;;;;4998467;28;20944;-67
2024/03/23 09:30:47;;;;;;;5.00;2.35;;;29.20;35.00;;;;;;5012103;28;20076;-65
2024/03/23 09:33:16;;;;;;;32.22;3.05;;;29.00;35.10;;;;;;5009004;28;20484;-65
2024/03/23 09:35:44;;;;;;;9.55;2.00;;;28.80;35.00;;;;;;5006961;28;20053;-66
2024/03/23 09:38:11;;;;;;;8.73;2.13;;;28.40;35.10;;;;;;5003359;28;20050;-67
2024/03/23 09:40:41;;;;;;;7.35;1.52;;;28.40;35.80;;;;;;5015088;28;20067;-64
2024/03/23 09:43:09;;;;;;;5.50;1.70;;;29.50;36.30;;;;;;5009731;28;20064;-66
2024/03/23 09:45:38;;;;;;;5.95;2.00;;;29.80;35.80;;;;;;5014161;28;20064;-64
2024/03/23 09:48:07;;;;;;;6.05;2.42;;;29.40;34.50;;;;;;5002227;28;20057;-65
2024/03/23 09:50:36;;;;;;;6.57;2.30;;;28.70;34.70;;;;;;5011863;28;20060;-66
2024/03/23 09:53:04;;;;;;;13.02;3.20;;;27.80;34.80;;;;;;5015100;28;20057;-64
2024/03/23 09:55:30;;;;;;;3.83;1.40;;;26.90;35.30;;;;;;5007845;28;20189;-62
2024/03/23 09:57:58;;;;;;;3.33;1.58;;;26.00;35.70;;;;;;5006651;28;20037;-63
2024/03/23 10:00:25;;;;;;;2.22;0.90;;;25.20;36.40;;;;;;5011212;28;20061;-62
2024/03/23 10:02:53;;;;;;;1.70;0.95;;;24.60;36.90;;;;;;4998218;28;20119;-63
2024/03/23 10:05:22;;;;;;;4.82;1.73;;;24.10;37.60;;;;;;5011948;28;20065;-63
2024/03/23 10:07:51;;;;;;;2.58;1.90;;;23.80;38.00;;;;;;5031419;28;20053;-63
2024/03/23 10:10:18;;;;;;;3.00;1.60;;;23.50;38.20;;;;;;5005434;28;21325;-64
2024/03/23 10:12:47;;;;;;;6.18;2.05;;;23.20;38.60;;;;;;5007331;28;20093;-63
2024/03/23 10:15:21;;;;;;;3.45;1.20;;;23.00;38.90;;;;;;5012864;28;20053;-65
2024/03/23 10:17:49;;;;;;;1.52;0.80;;;22.70;39.20;;;;;;5007458;28;20171;-63
2024/03/23 10:20:20;;;;;;;12.20;1.42;;;22.40;39.40;;;;;;5003151;28;20049;-62
2024/03/23 10:22:47;;;;;;;1.98;0.98;;;22.00;39.70;;;;;;5011234;28;20089;-62
2024/03/23 10:25:15;;;;;;;2.30;1.23;;;21.80;39.90;;;;;;5012174;28;20397;-64
2024/03/23 10:27:43;;;;;;;1.65;0.90;;;21.50;40.10;;;;;;5014826;28;20064;-61
2024/03/23 10:30:12;;;;;;;8.50;1.10;;;21.30;40.60;;;;;;4996766;28;20135;-63
2024/03/23 10:32:40;;;;;;;1.52;0.98;;;21.00;40.50;;;;;;5008744;28;20065;-62
2024/03/23 10:35:18;;;;;;;1.08;0.73;;;20.60;40.60;;;;;;4994073;28;20054;-62
2024/03/23 10:37:47;;;;;;;2.50;1.38;;;20.30;41.10;;;;;;5010757;28;20067;-64
2024/03/23 10:40:15;;;;;;;1.05;0.90;;;20.10;41.30;;;;;;4989816;28;20527;-62
2024/03/23 10:42:43;;;;;;;3.67;1.58;;;19.80;41.50;;;;;;5010775;28;20049;-62
2024/03/23 10:45:09;;;;;;;4.13;1.67;;;19.70;41.90;;;;;;5013908;28;20049;-63
2024/03/23 10:47:38;;;;;;;4.32;2.08;;;19.60;42.10;;;;;;5008247;28;20076;-61
2024/03/23 10:50:05;;;;;;;5.85;2.08;;;19.40;42.80;;;;;;5004168;28;20046;-62
2024/03/23 10:52:33;;;;;;;6.80;2.50;;;19.30;42.30;;;;;;5028045;28;20156;-62
2024/03/23 10:55:02;;;;;;;1.67;1.58;;;19.10;42.50;;;;;;5013376;28;20058;-61
2024/03/23 10:57:36;;;;;;;3.97;1.90;;;19.00;42.70;;;;;;4998910;28;20454;-61
2024/03/23 11:00:04;;;;;;;3.45;1.88;;;18.90;42.80;;;;;;5007514;28;20064;-62
2024/03/23 11:02:31;;;;;;;5.53;2.00;;;18.80;42.90;;;;;;5016969;28;20057;-61
2024/03/23 11:04:57;;;;;;;1.60;1.00;;;18.60;43.60;;;;;;5011190;28;20053;-62
2024/03/23 11:07:32;;;;;;;10.82;4.55;;;18.50;43.20;;;;;;5017979;28;20546;-60
2024/03/23 11:09:59;;;;;;;11.50;4.60;;;18.40;43.40;;;;;;5008429;28;20618;-63
2024/03/23 11:12:27;;;;;;;15.95;3.78;;;18.30;43.60;;;;;;4995411;28;20417;-61
2024/03/23 11:14:58;;;;;;;7.30;2.92;;;18.20;43.70;;;;;;5012710;28;20061;-63
2024/03/23 11:17:27;;;;;;;11.15;3.97;;;18.10;43.80;;;;;;5013178;28;20057;-63
2024/03/23 11:19:56;;;;;;;5.38;1.92;;;17.90;43.90;;;;;;5010034;28;20584;-61
2024/03/23 11:22:43;;;;;;;4.80;2.17;;;17.80;44.00;;;;;;5006360;28;20479;-62
2024/03/23 11:25:14;;;;;;;8.38;4.15;;;17.70;44.30;;;;;;5009173;28;20128;-61
2024/03/23 11:27:41;;;;;;;10.65;4.75;;;17.60;44.40;;;;;;5009385;28;20057;-61
2024/03/23 11:30:17;;;;;;;10.88;3.53;;;17.50;44.60;;;;;;5004320;28;20107;-61
2024/03/23 11:32:45;;;;;;;;;;;17.50;45.40;;;;;;5015309;28;20050;-61
2024/03/23 11:35:24;;;;;;;17.38;5.78;;;17.40;44.60;;;;;;5008492;28;19944;-61
2024/03/23 11:38:03;;;;;;;10.20;3.10;;;17.30;44.70;;;;;;5003940;28;20075;-61
2024/03/23 11:40:30;;;;;;;8.75;3.78;;;17.00;45.20;;;;;;5010667;28;20072;-61
2024/03/23 11:42:58;;;;;;;4.05;2.35;;;16.70;45.30;;;;;;5011304;28;20140;-64
2024/03/23 11:45:26;;;;;;;3.63;2.17;;;16.50;45.80;;;;;;5013793;28;20555;-62
2024/03/23 11:48:08;;;;;;;11.15;3.80;;;16.40;46.30;;;;;;5011646;28;20091;-63
2024/03/23 11:50:36;;;;;;;4.13;2.17;;;16.20;46.60;;;;;;5010608;28;20136;-65
2024/03/23 11:53:27;;;;;;;2.30;1.63;;;16.10;46.70;;;;;;4983359;28;20057;-64
2024/03/23 11:55:55;;;;;;;1.33;0.98;;;15.90;47.10;;;;;;4987303;28;20045;-63
2024/03/23 11:58:24;;;;;;;19.38;5.22;;;15.80;47.00;;;;;;5009015;28;20046;-62
2024/03/23 12:00:53;;;;;;;6.82;2.00;;;15.70;47.20;;;;;;4994421;28;21182;-64
2024/03/23 12:03:21;;;;;;;2.88;1.52;;;15.60;47.50;;;;;;5003728;28;20064;-65
2024/03/23 12:05:50;;;;;;;0.88;0.60;;;15.50;47.60;;;;;;5011756;28;20072;-65
2024/03/23 12:08:19;;;;;;;3.50;1.70;;;15.40;47.80;;;;;;4986759;28;20739;-65
2024/03/23 12:10:48;;;;;;;1.33;0.93;;;15.20;47.80;;;;;;4988543;28;20126;-66
2024/03/23 12:13:20;;;;;;;9.38;2.70;;;15.10;48.00;;;;;;5003874;28;20049;-67
2024/03/23 12:15:47;;;;;;;0.68;0.68;;;15.00;48.30;;;;;;5002422;28;20144;-64
2024/03/23 12:18:16;;;;;;;4.43;2.47;;;14.90;48.60;;;;;;4987802;28;20068;-65
2024/03/23 12:20:42;;;;;;;2.97;1.30;;;14.80;48.70;;;;;;5006976;28;20073;-64
2024/03/23 12:23:12;;;;;;;1.13;1.00;;;14.70;49.20;;;;;;4993704;28;20045;-62
2024/03/23 12:25:41;;;;;;;5.13;1.92;;;14.70;48.80;;;;;;5011488;28;20056;-65
2024/03/23 12:28:09;;;;;;;1.67;1.13;;;14.60;48.90;;;;;;4996048;28;20053;-67
2024/03/23 12:30:38;;;;;;;5.55;2.30;;;14.50;49.00;;;;;;5006910;28;20061;-65
2024/03/23 12:33:06;;;;;;;3.30;0.82;;;14.50;49.20;;;;;;4991290;28;20135;-66
2024/03/23 12:35:34;;;;;;;5.22;1.63;;;14.40;49.30;;;;;;4987540;28;20052;-66
2024/03/23 12:38:03;;;;;;;1.52;0.80;;;14.40;49.50;;;;;;5005471;28;20389;-61
2024/03/23 12:40:30;;;;;;;1.17;1.05;;;14.40;49.70;;;;;;5000920;28;20057;-62
2024/03/23 12:42:57;;;;;;;1.10;1.00;;;14.30;49.60;;;;;;5009541;28;20057;-63
2024/03/23 12:45:24;;;;;;;2.10;1.33;;;14.20;49.80;;;;;;5007901;28;20054;-63
2024/03/23 12:47:53;;;;;;;3.97;2.55;;;14.10;49.80;;;;;;5006331;28;20062;-64